sensor_id;sensor_type;location;lat;lon;timestamp;pressure;altitude;pressure_sealevel;temperature;humidity
68199;BME280;55021;51.554;17.044;2023-08-20T00:01:05;100913.03;;;20.63;92.14
68199;BME280;55021;51.554;17.044;2023-08-20T00:16:25;100856.56;;;20.27;90.68
68199;BME280;55021;51.554;17.044;2023-08-20T00:31:27;100888.56;;;19.96;93.95
68199;BME280;55021;51.554;17.044;2023-08-20T00:46:29;100890.25;;;20.30;92.00
68199;BME280;55021;51.554;17.044;2023-08-20T01:01:32;100869.91;;;20.04;92.56
68199;BME280;55021;51.554;17.044;2023-08-20T01:16:34;100889.81;;;20.39;88.79
68199;BME280;55021;51.554;17.044;2023-08-20T01:31:37;100853.84;;;19.88;91.02
68199;BME280;55021;51.554;17.044;2023-08-20T01:46:40;100889.00;;;20.19;90.30
68199;BME280;55021;51.554;17.044;2023-08-20T02:01:42;100906.72;;;19.31;95.23
68199;BME280;55021;51.554;17.044;2023-08-20T02:16:46;100920.31;;;19.59;91.82
68199;BME280;55021;51.554;17.044;2023-08-20T02:31:48;100931.69;;;19.49;93.52
68199;BME280;55021;51.554;17.044;2023-08-20T02:46:50;100909.00;;;19.21;93.64
68199;BME280;55021;51.554;17.044;2023-08-20T03:01:52;100918.56;;;19.38;92.43
68199;BME280;55021;51.554;17.044;2023-08-20T03:16:54;100914.53;;;19.28;93.78
68199;BME280;55021;51.554;17.044;2023-08-20T03:31:56;100911.84;;;19.41;90.54
68199;BME280;55021;51.554;17.044;2023-08-20T03:46:59;100923.44;;;18.41;96.18
68199;BME280;55021;51.554;17.044;2023-08-20T04:02:01;100918.75;;;18.70;94.00
68199;BME280;55021;51.554;17.044;2023-08-20T04:17:04;100928.22;;;19.08;92.38
68199;BME280;55021;51.554;17.044;2023-08-20T04:32:07;100937.22;;;18.95;93.68
68199;BME280;55021;51.554;17.044;2023-08-20T04:47:12;100952.31;;;20.39;87.96
68199;BME280;55021;51.554;17.044;2023-08-20T05:02:14;100952.94;;;20.27;91.14
68199;BME280;55021;51.554;17.044;2023-08-20T05:17:17;100959.06;;;21.13;89.04
68199;BME280;55021;51.554;17.044;2023-08-20T05:32:19;100959.81;;;21.78;89.00
68199;BME280;55021;51.554;17.044;2023-08-20T05:47:22;100966.25;;;22.46;88.41
68199;BME280;55021;51.554;17.044;2023-08-20T06:02:24;100971.41;;;23.33;84.61
68199;BME280;55021;51.554;17.044;2023-08-20T06:17:26;100975.69;;;24.18;82.08
68199;BME280;55021;51.554;17.044;2023-08-20T06:32:28;100898.22;;;24.12;80.70
68199;BME280;55021;51.554;17.044;2023-08-20T06:47:32;100904.81;;;25.20;76.71
68199;BME280;55021;51.554;17.044;2023-08-20T07:02:35;100994.09;;;27.02;70.59
68199;BME280;55021;51.554;17.044;2023-08-20T07:17:41;101005.31;;;27.07;70.60
68199;BME280;55021;51.554;17.044;2023-08-20T07:32:59;101017.56;;;27.98;66.94
68199;BME280;55021;51.554;17.044;2023-08-20T07:48:02;101016.22;;;29.06;61.87
68199;BME280;55021;51.554;17.044;2023-08-20T08:03:04;101032.59;;;30.26;59.68
68199;BME280;55021;51.554;17.044;2023-08-20T08:33:53;101031.94;;;31.94;48.06
68199;BME280;55021;51.554;17.044;2023-08-20T08:48:55;101024.06;;;31.96;50.30
68199;BME280;55021;51.554;17.044;2023-08-20T09:19:28;101048.28;;;30.32;55.75
68199;BME280;55021;51.554;17.044;2023-08-20T09:34:38;101057.25;;;30.44;56.70
68199;BME280;55021;51.554;17.044;2023-08-20T09:49:41;101062.28;;;29.45;59.43
68199;BME280;55021;51.554;17.044;2023-08-20T10:04:44;101057.28;;;30.80;56.32
68199;BME280;55021;51.554;17.044;2023-08-20T10:19:47;101045.50;;;30.73;51.49
68199;BME280;55021;51.554;17.044;2023-08-20T10:34:57;101014.41;;;32.17;49.82
68199;BME280;55021;51.554;17.044;2023-08-20T10:50:00;101015.91;;;33.01;46.91
68199;BME280;55021;51.554;17.044;2023-08-20T11:05:09;100991.28;;;32.93;45.86
68199;BME280;55021;51.554;17.044;2023-08-20T11:20:17;101017.28;;;33.75;47.24
68199;BME280;55021;51.554;17.044;2023-08-20T11:35:20;101017.84;;;31.60;47.07
68199;BME280;55021;51.554;17.044;2023-08-20T11:50:23;101010.31;;;31.46;43.50
68199;BME280;55021;51.554;17.044;2023-08-20T12:05:27;100965.94;;;32.40;41.53
68199;BME280;55021;51.554;17.044;2023-08-20T12:20:32;100987.94;;;32.62;43.42
68199;BME280;55021;51.554;17.044;2023-08-20T12:35:35;100987.63;;;32.64;41.27
68199;BME280;55021;51.554;17.044;2023-08-20T12:50:38;100969.28;;;32.14;42.13
68199;BME280;55021;51.554;17.044;2023-08-20T13:05:41;100949.34;;;32.44;40.65
68199;BME280;55021;51.554;17.044;2023-08-20T13:20:43;100971.22;;;32.76;42.86
68199;BME280;55021;51.554;17.044;2023-08-20T13:35:46;100968.50;;;32.94;42.62
68199;BME280;55021;51.554;17.044;2023-08-20T13:50:48;100964.84;;;32.70;44.28
68199;BME280;55021;51.554;17.044;2023-08-20T14:05:50;100947.09;;;32.12;45.99
68199;BME280;55021;51.554;17.044;2023-08-20T14:20:58;100942.84;;;33.01;43.11
68199;BME280;55021;51.554;17.044;2023-08-20T14:36:00;100959.94;;;32.52;44.03
68199;BME280;55021;51.554;17.044;2023-08-20T14:51:03;100924.06;;;33.63;41.99
68199;BME280;55021;51.554;17.044;2023-08-20T15:06:05;100951.41;;;34.45;39.69
68199;BME280;55021;51.554;17.044;2023-08-20T15:21:07;100945.59;;;33.72;43.06
68199;BME280;55021;51.554;17.044;2023-08-20T15:36:09;100925.69;;;33.03;42.67
68199;BME280;55021;51.554;17.044;2023-08-20T15:51:12;100901.63;;;32.73;46.05
68199;BME280;55021;51.554;17.044;2023-08-20T16:06:15;100889.19;;;32.50;47.55
68199;BME280;55021;51.554;17.044;2023-08-20T16:21:17;100901.41;;;31.68;46.33
68199;BME280;55021;51.554;17.044;2023-08-20T16:36:19;100933.22;;;29.63;52.48
68199;BME280;55021;51.554;17.044;2023-08-20T16:51:22;100931.63;;;30.53;49.13
68199;BME280;55021;51.554;17.044;2023-08-20T17:06:24;100936.66;;;30.00;52.22
68199;BME280;55021;51.554;17.044;2023-08-20T17:21:27;100940.75;;;29.58;56.64
68199;BME280;55021;51.554;17.044;2023-08-20T17:36:29;100943.38;;;28.60;60.11
68199;BME280;55021;51.554;17.044;2023-08-20T17:51:32;100949.03;;;28.28;61.40
68199;BME280;55021;51.554;17.044;2023-08-20T18:06:35;100958.38;;;27.37;65.25
68199;BME280;55021;51.554;17.044;2023-08-20T18:21:37;100925.75;;;26.68;70.10
68199;BME280;55021;51.554;17.044;2023-08-20T18:36:40;100990.75;;;26.45;71.24
68199;BME280;55021;51.554;17.044;2023-08-20T18:51:43;101008.03;;;25.85;74.64
68199;BME280;55021;51.554;17.044;2023-08-20T19:06:45;101016.53;;;25.67;73.71
68199;BME280;55021;51.554;17.044;2023-08-20T19:21:48;101023.19;;;25.26;75.36
68199;BME280;55021;51.554;17.044;2023-08-20T19:36:50;101017.88;;;25.02;76.58
68199;BME280;55021;51.554;17.044;2023-08-20T19:51:53;101021.91;;;24.48;79.29
68199;BME280;55021;51.554;17.044;2023-08-20T20:06:55;101055.28;;;24.87;75.70
68199;BME280;55021;51.554;17.044;2023-08-20T20:21:58;101042.66;;;24.15;80.31
68199;BME280;55021;51.554;17.044;2023-08-20T20:37:00;101021.88;;;23.95;80.27
68199;BME280;55021;51.554;17.044;2023-08-20T20:52:02;101060.47;;;23.78;81.61
68199;BME280;55021;51.554;17.044;2023-08-20T21:07:04;101058.47;;;23.67;82.21
68199;BME280;55021;51.554;17.044;2023-08-20T21:22:13;101056.06;;;23.23;84.57
68199;BME280;55021;51.554;17.044;2023-08-20T21:37:16;101053.09;;;22.99;85.03
68199;BME280;55021;51.554;17.044;2023-08-20T21:52:18;101065.81;;;23.43;83.90
68199;BME280;55021;51.554;17.044;2023-08-20T22:07:20;101059.63;;;23.05;84.28
68199;BME280;55021;51.554;17.044;2023-08-20T22:22:22;101080.88;;;22.86;85.87
68199;BME280;55021;51.554;17.044;2023-08-20T22:37:25;101095.94;;;23.15;82.47
68199;BME280;55021;51.554;17.044;2023-08-20T22:52:27;101107.06;;;23.27;82.36
68199;BME280;55021;51.554;17.044;2023-08-20T23:07:30;101085.22;;;21.88;89.17
68199;BME280;55021;51.554;17.044;2023-08-20T23:22:32;101096.72;;;23.22;84.36
68199;BME280;55021;51.554;17.044;2023-08-20T23:37:35;101091.72;;;23.49;84.80
68199;BME280;55021;51.554;17.044;2023-08-20T23:52:37;101083.63;;;22.68;90.15
